sensor_id;sensor_type;location;lat;lon;timestamp;temperature;humidity
49579;DHT22;35483;50.828;3.228;2023-02-12T00:00:39;10.10;99.90
49579;DHT22;35483;50.828;3.228;2023-02-12T00:03:05;10.10;99.90
49579;DHT22;35483;50.828;3.228;2023-02-12T00:05:31;10.10;99.90
49579;DHT22;35483;50.828;3.228;2023-02-12T00:07:57;10.10;99.90
49579;DHT22;35483;50.828;3.228;2023-02-12T00:10:23;10.10;99.90
49579;DHT22;35483;50.828;3.228;2023-02-12T00:12:48;10.10;99.90
49579;DHT22;35483;50.828;3.228;2023-02-12T00:15:14;10.10;99.90
49579;DHT22;35483;50.828;3.228;2023-02-12T00:17:40;10.10;99.90
49579;DHT22;35483;50.828;3.228;2023-02-12T00:20:06;10.10;99.90
49579;DHT22;35483;50.828;3.228;2023-02-12T00:22:32;10.20;99.90
49579;DHT22;35483;50.828;3.228;2023-02-12T00:24:58;10.10;99.90
49579;DHT22;35483;50.828;3.228;2023-02-12T00:27:24;10.10;99.90
49579;DHT22;35483;50.828;3.228;2023-02-12T00:29:50;10.10;99.90
49579;DHT22;35483;50.828;3.228;2023-02-12T00:32:16;10.10;99.90
49579;DHT22;35483;50.828;3.228;2023-02-12T00:34:47;10.10;99.90
49579;DHT22;35483;50.828;3.228;2023-02-12T00:37:13;10.10;99.90
49579;DHT22;35483;50.828;3.228;2023-02-12T00:39:39;10.10;99.90
49579;DHT22;35483;50.828;3.228;2023-02-12T00:42:05;10.10;99.90
49579;DHT22;35483;50.828;3.228;2023-02-12T00:44:30;10.10;99.90
49579;DHT22;35483;50.828;3.228;2023-02-12T00:46:56;10.10;99.90
49579;DHT22;35483;50.828;3.228;2023-02-12T00:49:23;10.10;99.90
49579;DHT22;35483;50.828;3.228;2023-02-12T00:51:49;10.10;99.90
49579;DHT22;35483;50.828;3.228;2023-02-12T00:54:15;10.10;99.90
49579;DHT22;35483;50.828;3.228;2023-02-12T00:56:40;10.10;99.90
49579;DHT22;35483;50.828;3.228;2023-02-12T00:59:06;10.10;99.90
49579;DHT22;35483;50.828;3.228;2023-02-12T01:01:32;10.10;99.90
49579;DHT22;35483;50.828;3.228;2023-02-12T01:03:58;10.10;99.90
49579;DHT22;35483;50.828;3.228;2023-02-12T01:06:24;10.00;99.90
49579;DHT22;35483;50.828;3.228;2023-02-12T01:08:51;10.00;99.90
49579;DHT22;35483;50.828;3.228;2023-02-12T01:11:18;10.00;99.90
49579;DHT22;35483;50.828;3.228;2023-02-12T01:13:44;10.10;99.90
49579;DHT22;35483;50.828;3.228;2023-02-12T01:16:16;10.00;99.90
49579;DHT22;35483;50.828;3.228;2023-02-12T01:18:43;10.10;99.90
49579;DHT22;35483;50.828;3.228;2023-02-12T01:21:10;10.10;99.90
49579;DHT22;35483;50.828;3.228;2023-02-12T01:23:36;10.10;99.90
49579;DHT22;35483;50.828;3.228;2023-02-12T01:26:03;10.10;99.90
49579;DHT22;35483;50.828;3.228;2023-02-12T01:28:29;10.10;99.90
49579;DHT22;35483;50.828;3.228;2023-02-12T01:30:54;10.00;99.90
49579;DHT22;35483;50.828;3.228;2023-02-12T01:33:20;10.10;99.90
49579;DHT22;35483;50.828;3.228;2023-02-12T01:35:46;10.10;99.90
49579;DHT22;35483;50.828;3.228;2023-02-12T01:38:11;10.00;99.90
49579;DHT22;35483;50.828;3.228;2023-02-12T01:40:37;10.10;99.90
49579;DHT22;35483;50.828;3.228;2023-02-12T01:43:05;10.10;99.90
49579;DHT22;35483;50.828;3.228;2023-02-12T01:45:49;10.10;99.90
49579;DHT22;35483;50.828;3.228;2023-02-12T01:48:18;10.00;99.90
49579;DHT22;35483;50.828;3.228;2023-02-12T01:50:45;10.00;99.90
49579;DHT22;35483;50.828;3.228;2023-02-12T01:53:14;10.00;99.90
49579;DHT22;35483;50.828;3.228;2023-02-12T01:55:46;10.00;99.90
49579;DHT22;35483;50.828;3.228;2023-02-12T01:58:13;10.00;99.90
49579;DHT22;35483;50.828;3.228;2023-02-12T02:00:39;10.00;99.90
49579;DHT22;35483;50.828;3.228;2023-02-12T02:03:05;10.00;99.90
49579;DHT22;35483;50.828;3.228;2023-02-12T02:06:21;10.00;99.90
49579;DHT22;35483;50.828;3.228;2023-02-12T02:08:39;10.10;99.90
49579;DHT22;35483;50.828;3.228;2023-02-12T02:11:05;10.00;99.90
49579;DHT22;35483;50.828;3.228;2023-02-12T02:13:52;10.00;99.90
49579;DHT22;35483;50.828;3.228;2023-02-12T02:16:41;10.00;99.90
49579;DHT22;35483;50.828;3.228;2023-02-12T02:19:18;9.90;99.90
49579;DHT22;35483;50.828;3.228;2023-02-12T02:28:13;10.00;99.90
49579;DHT22;35483;50.828;3.228;2023-02-12T02:33:58;10.00;99.90
49579;DHT22;35483;50.828;3.228;2023-02-12T02:36:42;10.00;99.90
49579;DHT22;35483;50.828;3.228;2023-02-12T02:39:28;9.90;99.90
49579;DHT22;35483;50.828;3.228;2023-02-12T02:42:13;9.90;99.90
49579;DHT22;35483;50.828;3.228;2023-02-12T02:44:51;9.90;99.90
49579;DHT22;35483;50.828;3.228;2023-02-12T02:47:22;9.90;99.90
49579;DHT22;35483;50.828;3.228;2023-02-12T02:49:55;9.90;99.90
49579;DHT22;35483;50.828;3.228;2023-02-12T02:52:28;9.90;99.90
49579;DHT22;35483;50.828;3.228;2023-02-12T02:55:00;9.90;99.90
49579;DHT22;35483;50.828;3.228;2023-02-12T02:57:57;9.90;99.90
49579;DHT22;35483;50.828;3.228;2023-02-12T03:00:47;9.90;99.90
49579;DHT22;35483;50.828;3.228;2023-02-12T03:06:13;9.90;99.90
49579;DHT22;35483;50.828;3.228;2023-02-12T03:08:51;9.90;99.90
49579;DHT22;35483;50.828;3.228;2023-02-12T03:11:24;9.90;99.90
49579;DHT22;35483;50.828;3.228;2023-02-12T03:16:39;9.90;99.90
49579;DHT22;35483;50.828;3.228;2023-02-12T03:19:24;9.80;99.90
49579;DHT22;35483;50.828;3.228;2023-02-12T03:22:00;9.80;99.90
49579;DHT22;35483;50.828;3.228;2023-02-12T03:24:38;9.80;99.90
49579;DHT22;35483;50.828;3.228;2023-02-12T03:27:19;9.80;99.90
49579;DHT22;35483;50.828;3.228;2023-02-12T03:29:47;9.70;99.90
49579;DHT22;35483;50.828;3.228;2023-02-12T03:32:30;9.70;99.90
49579;DHT22;35483;50.828;3.228;2023-02-12T03:35:09;9.80;99.90
49579;DHT22;35483;50.828;3.228;2023-02-12T03:41:19;9.80;99.90
49579;DHT22;35483;50.828;3.228;2023-02-12T03:45:59;9.70;99.90
49579;DHT22;35483;50.828;3.228;2023-02-12T03:53:45;9.70;99.90
49579;DHT22;35483;50.828;3.228;2023-02-12T03:56:24;9.70;99.90
49579;DHT22;35483;50.828;3.228;2023-02-12T03:58:51;9.70;99.90
49579;DHT22;35483;50.828;3.228;2023-02-12T04:01:17;9.70;99.90
49579;DHT22;35483;50.828;3.228;2023-02-12T04:03:43;9.80;99.90
49579;DHT22;35483;50.828;3.228;2023-02-12T04:06:26;9.80;99.90
49579;DHT22;35483;50.828;3.228;2023-02-12T04:09:00;9.80;99.90
49579;DHT22;35483;50.828;3.228;2023-02-12T04:12:19;9.70;99.90
49579;DHT22;35483;50.828;3.228;2023-02-12T04:15:19;9.70;99.90
49579;DHT22;35483;50.828;3.228;2023-02-12T04:17:51;9.70;99.90
49579;DHT22;35483;50.828;3.228;2023-02-12T04:20:50;9.70;99.90
49579;DHT22;35483;50.828;3.228;2023-02-12T04:31:48;9.70;99.90
49579;DHT22;35483;50.828;3.228;2023-02-12T04:37:27;9.70;99.90
49579;DHT22;35483;50.828;3.228;2023-02-12T04:39:53;9.70;99.90
49579;DHT22;35483;50.828;3.228;2023-02-12T04:42:20;9.70;99.90
49579;DHT22;35483;50.828;3.228;2023-02-12T04:44:46;9.70;99.90
49579;DHT22;35483;50.828;3.228;2023-02-12T04:47:13;9.70;99.90
49579;DHT22;35483;50.828;3.228;2023-02-12T04:49:39;9.70;99.90
49579;DHT22;35483;50.828;3.228;2023-02-12T04:52:06;9.70;99.90
49579;DHT22;35483;50.828;3.228;2023-02-12T04:54:32;9.70;99.90
49579;DHT22;35483;50.828;3.228;2023-02-12T04:56:58;9.70;99.90
49579;DHT22;35483;50.828;3.228;2023-02-12T04:59:24;9.70;99.90
49579;DHT22;35483;50.828;3.228;2023-02-12T05:01:51;9.70;99.90
49579;DHT22;35483;50.828;3.228;2023-02-12T05:04:17;9.70;99.90
49579;DHT22;35483;50.828;3.228;2023-02-12T05:06:44;9.70;99.90
49579;DHT22;35483;50.828;3.228;2023-02-12T05:09:17;9.70;99.90
49579;DHT22;35483;50.828;3.228;2023-02-12T05:11:43;9.70;99.90
49579;DHT22;35483;50.828;3.228;2023-02-12T05:14:08;9.60;99.90
49579;DHT22;35483;50.828;3.228;2023-02-12T05:16:34;9.60;99.90
49579;DHT22;35483;50.828;3.228;2023-02-12T05:19:00;9.60;99.90
49579;DHT22;35483;50.828;3.228;2023-02-12T05:21:25;9.60;99.90
49579;DHT22;35483;50.828;3.228;2023-02-12T05:23:51;9.60;99.90
49579;DHT22;35483;50.828;3.228;2023-02-12T05:26:19;9.60;99.90
49579;DHT22;35483;50.828;3.228;2023-02-12T05:28:45;9.60;99.90
49579;DHT22;35483;50.828;3.228;2023-02-12T05:31:16;9.70;99.90
49579;DHT22;35483;50.828;3.228;2023-02-12T05:33:46;9.70;99.90
49579;DHT22;35483;50.828;3.228;2023-02-12T05:36:14;9.70;99.90
49579;DHT22;35483;50.828;3.228;2023-02-12T05:38:40;9.70;99.90
49579;DHT22;35483;50.828;3.228;2023-02-12T05:41:15;9.70;99.90
49579;DHT22;35483;50.828;3.228;2023-02-12T05:43:41;9.70;99.90
49579;DHT22;35483;50.828;3.228;2023-02-12T05:46:07;9.70;99.90
49579;DHT22;35483;50.828;3.228;2023-02-12T05:48:34;9.70;99.90
49579;DHT22;35483;50.828;3.228;2023-02-12T05:51:04;9.60;99.90
49579;DHT22;35483;50.828;3.228;2023-02-12T05:53:31;9.60;99.90
49579;DHT22;35483;50.828;3.228;2023-02-12T05:56:12;9.60;99.90
49579;DHT22;35483;50.828;3.228;2023-02-12T05:58:40;9.60;99.90
49579;DHT22;35483;50.828;3.228;2023-02-12T06:01:20;9.60;99.90
49579;DHT22;35483;50.828;3.228;2023-02-12T06:03:47;9.60;99.90
49579;DHT22;35483;50.828;3.228;2023-02-12T06:06:13;9.60;99.90
49579;DHT22;35483;50.828;3.228;2023-02-12T06:08:39;9.60;99.90
49579;DHT22;35483;50.828;3.228;2023-02-12T06:11:09;9.60;99.90
49579;DHT22;35483;50.828;3.228;2023-02-12T06:13:35;9.60;99.90
49579;DHT22;35483;50.828;3.228;2023-02-12T06:16:01;9.60;99.90
49579;DHT22;35483;50.828;3.228;2023-02-12T06:18:27;9.60;99.90
49579;DHT22;35483;50.828;3.228;2023-02-12T06:20:54;9.60;99.90
49579;DHT22;35483;50.828;3.228;2023-02-12T06:23:23;9.60;99.90
49579;DHT22;35483;50.828;3.228;2023-02-12T06:25:50;9.60;99.90
49579;DHT22;35483;50.828;3.228;2023-02-12T06:28:16;9.60;99.90
49579;DHT22;35483;50.828;3.228;2023-02-12T06:30:42;9.60;99.90
49579;DHT22;35483;50.828;3.228;2023-02-12T06:33:08;9.60;99.90
49579;DHT22;35483;50.828;3.228;2023-02-12T06:35:35;9.60;99.90
49579;DHT22;35483;50.828;3.228;2023-02-12T06:38:01;9.60;99.90
49579;DHT22;35483;50.828;3.228;2023-02-12T06:40:27;9.60;99.90
49579;DHT22;35483;50.828;3.228;2023-02-12T06:42:52;9.60;99.90
49579;DHT22;35483;50.828;3.228;2023-02-12T06:45:18;9.60;99.90
49579;DHT22;35483;50.828;3.228;2023-02-12T06:47:44;9.60;99.90
49579;DHT22;35483;50.828;3.228;2023-02-12T06:50:10;9.60;99.90
49579;DHT22;35483;50.828;3.228;2023-02-12T06:52:35;9.60;99.90
49579;DHT22;35483;50.828;3.228;2023-02-12T06:55:01;9.60;99.90
49579;DHT22;35483;50.828;3.228;2023-02-12T06:57:28;9.60;99.90
49579;DHT22;35483;50.828;3.228;2023-02-12T06:59:54;9.60;99.90
49579;DHT22;35483;50.828;3.228;2023-02-12T07:02:20;9.50;99.90
49579;DHT22;35483;50.828;3.228;2023-02-12T07:04:46;9.60;99.90
49579;DHT22;35483;50.828;3.228;2023-02-12T07:07:12;9.50;99.90
49579;DHT22;35483;50.828;3.228;2023-02-12T07:09:38;9.50;99.90
49579;DHT22;35483;50.828;3.228;2023-02-12T07:12:04;9.50;99.90
49579;DHT22;35483;50.828;3.228;2023-02-12T07:14:29;9.50;99.90
49579;DHT22;35483;50.828;3.228;2023-02-12T07:16:56;9.50;99.90
49579;DHT22;35483;50.828;3.228;2023-02-12T07:19:22;9.50;99.90
49579;DHT22;35483;50.828;3.228;2023-02-12T07:21:48;9.50;99.90
49579;DHT22;35483;50.828;3.228;2023-02-12T07:24:14;9.60;99.90
49579;DHT22;35483;50.828;3.228;2023-02-12T07:26:42;9.60;99.90
49579;DHT22;35483;50.828;3.228;2023-02-12T07:29:08;9.60;99.90
49579;DHT22;35483;50.828;3.228;2023-02-12T07:31:34;9.50;99.90
49579;DHT22;35483;50.828;3.228;2023-02-12T07:34:00;9.50;99.90
49579;DHT22;35483;50.828;3.228;2023-02-12T07:36:28;9.50;99.90
49579;DHT22;35483;50.828;3.228;2023-02-12T07:38:55;9.50;99.90
49579;DHT22;35483;50.828;3.228;2023-02-12T07:41:29;9.60;99.90
49579;DHT22;35483;50.828;3.228;2023-02-12T07:43:57;9.50;99.90
49579;DHT22;35483;50.828;3.228;2023-02-12T07:46:26;9.50;99.90
49579;DHT22;35483;50.828;3.228;2023-02-12T07:48:56;9.50;99.90
49579;DHT22;35483;50.828;3.228;2023-02-12T07:51:22;9.40;99.90
49579;DHT22;35483;50.828;3.228;2023-02-12T07:53:49;9.50;99.90
49579;DHT22;35483;50.828;3.228;2023-02-12T07:56:19;9.50;99.90
49579;DHT22;35483;50.828;3.228;2023-02-12T07:58:48;9.50;99.90
49579;DHT22;35483;50.828;3.228;2023-02-12T08:01:21;9.50;99.90
49579;DHT22;35483;50.828;3.228;2023-02-12T08:03:48;9.50;99.90
49579;DHT22;35483;50.828;3.228;2023-02-12T08:06:23;9.50;99.90
49579;DHT22;35483;50.828;3.228;2023-02-12T08:08:53;9.50;99.90
49579;DHT22;35483;50.828;3.228;2023-02-12T08:11:20;9.50;99.90
49579;DHT22;35483;50.828;3.228;2023-02-12T08:13:45;9.50;99.90
49579;DHT22;35483;50.828;3.228;2023-02-12T08:16:17;9.50;99.90
49579;DHT22;35483;50.828;3.228;2023-02-12T08:18:43;9.60;99.90
49579;DHT22;35483;50.828;3.228;2023-02-12T08:21:14;9.60;99.90
49579;DHT22;35483;50.828;3.228;2023-02-12T08:23:40;9.60;99.90
49579;DHT22;35483;50.828;3.228;2023-02-12T08:28:35;9.60;99.90
49579;DHT22;35483;50.828;3.228;2023-02-12T08:31:03;9.60;99.90
49579;DHT22;35483;50.828;3.228;2023-02-12T08:33:29;9.60;99.90
49579;DHT22;35483;50.828;3.228;2023-02-12T08:38:32;9.60;99.90
49579;DHT22;35483;50.828;3.228;2023-02-12T08:41:10;9.70;99.90
49579;DHT22;35483;50.828;3.228;2023-02-12T08:43:36;9.70;99.90
49579;DHT22;35483;50.828;3.228;2023-02-12T08:48:32;9.70;99.90
49579;DHT22;35483;50.828;3.228;2023-02-12T08:51:19;9.70;99.90
49579;DHT22;35483;50.828;3.228;2023-02-12T08:53:46;9.80;99.90
49579;DHT22;35483;50.828;3.228;2023-02-12T08:56:14;9.80;99.90
49579;DHT22;35483;50.828;3.228;2023-02-12T08:58:41;9.80;99.90
49579;DHT22;35483;50.828;3.228;2023-02-12T09:01:16;9.90;99.90
49579;DHT22;35483;50.828;3.228;2023-02-12T09:03:43;9.90;99.90
49579;DHT22;35483;50.828;3.228;2023-02-12T09:06:09;9.90;99.90
49579;DHT22;35483;50.828;3.228;2023-02-12T09:08:36;9.90;99.90
49579;DHT22;35483;50.828;3.228;2023-02-12T09:11:22;9.90;99.90
49579;DHT22;35483;50.828;3.228;2023-02-12T09:13:51;10.00;99.10
49579;DHT22;35483;50.828;3.228;2023-02-12T09:16:17;10.00;99.90
49579;DHT22;35483;50.828;3.228;2023-02-12T09:18:43;10.00;99.90
49579;DHT22;35483;50.828;3.228;2023-02-12T09:21:14;10.10;99.90
49579;DHT22;35483;50.828;3.228;2023-02-12T09:23:41;10.10;99.90
49579;DHT22;35483;50.828;3.228;2023-02-12T09:26:09;10.20;99.90
49579;DHT22;35483;50.828;3.228;2023-02-12T09:28:36;10.20;99.90
49579;DHT22;35483;50.828;3.228;2023-02-12T09:31:07;10.20;99.90
49579;DHT22;35483;50.828;3.228;2023-02-12T09:33:33;10.30;99.90
49579;DHT22;35483;50.828;3.228;2023-02-12T09:36:05;10.30;99.90
49579;DHT22;35483;50.828;3.228;2023-02-12T09:38:31;10.30;99.90
49579;DHT22;35483;50.828;3.228;2023-02-12T09:41:28;10.30;99.90
49579;DHT22;35483;50.828;3.228;2023-02-12T09:52:34;10.60;98.60
49579;DHT22;35483;50.828;3.228;2023-02-12T09:55:01;10.50;99.60
49579;DHT22;35483;50.828;3.228;2023-02-12T09:57:36;10.50;99.50
49579;DHT22;35483;50.828;3.228;2023-02-12T10:00:30;10.60;99.60
49579;DHT22;35483;50.828;3.228;2023-02-12T10:03:00;10.70;98.40
49579;DHT22;35483;50.828;3.228;2023-02-12T10:05:31;10.70;99.20
49579;DHT22;35483;50.828;3.228;2023-02-12T10:08:38;10.70;99.10
49579;DHT22;35483;50.828;3.228;2023-02-12T10:27:15;10.90;96.30
49579;DHT22;35483;50.828;3.228;2023-02-12T10:29:41;10.90;98.20
49579;DHT22;35483;50.828;3.228;2023-02-12T10:32:27;10.90;98.30
49579;DHT22;35483;50.828;3.228;2023-02-12T10:34:55;10.90;98.10
49579;DHT22;35483;50.828;3.228;2023-02-12T10:40:21;11.00;97.80
49579;DHT22;35483;50.828;3.228;2023-02-12T10:42:49;11.00;97.60
49579;DHT22;35483;50.828;3.228;2023-02-12T10:45:23;11.00;98.30
49579;DHT22;35483;50.828;3.228;2023-02-12T10:47:53;11.10;98.30
49579;DHT22;35483;50.828;3.228;2023-02-12T10:53:25;11.10;95.30
49579;DHT22;35483;50.828;3.228;2023-02-12T10:58:31;11.20;96.70
49579;DHT22;35483;50.828;3.228;2023-02-12T11:00:58;11.20;98.10
49579;DHT22;35483;50.828;3.228;2023-02-12T11:03:30;11.30;98.10
49579;DHT22;35483;50.828;3.228;2023-02-12T11:06:22;11.40;97.70
49579;DHT22;35483;50.828;3.228;2023-02-12T11:08:49;11.30;95.20
49579;DHT22;35483;50.828;3.228;2023-02-12T11:11:30;11.30;97.80
49579;DHT22;35483;50.828;3.228;2023-02-12T11:14:05;11.30;93.60
49579;DHT22;35483;50.828;3.228;2023-02-12T11:16:37;11.20;97.50
49579;DHT22;35483;50.828;3.228;2023-02-12T11:19:06;11.20;97.30
49579;DHT22;35483;50.828;3.228;2023-02-12T11:21:34;11.30;97.80
49579;DHT22;35483;50.828;3.228;2023-02-12T11:27:26;11.20;96.30
49579;DHT22;35483;50.828;3.228;2023-02-12T11:32:35;11.30;96.10
49579;DHT22;35483;50.828;3.228;2023-02-12T11:35:05;11.30;98.00
49579;DHT22;35483;50.828;3.228;2023-02-12T11:37:32;11.30;97.40
49579;DHT22;35483;50.828;3.228;2023-02-12T11:40:01;11.40;97.40
49579;DHT22;35483;50.828;3.228;2023-02-12T11:42:28;11.30;97.30
49579;DHT22;35483;50.828;3.228;2023-02-12T11:44:57;11.40;97.30
49579;DHT22;35483;50.828;3.228;2023-02-12T11:47:31;11.50;97.40
49579;DHT22;35483;50.828;3.228;2023-02-12T11:50:20;11.50;96.50
49579;DHT22;35483;50.828;3.228;2023-02-12T11:52:50;11.60;96.30
49579;DHT22;35483;50.828;3.228;2023-02-12T11:55:20;11.50;96.90
49579;DHT22;35483;50.828;3.228;2023-02-12T11:57:48;11.50;97.20
49579;DHT22;35483;50.828;3.228;2023-02-12T12:00:26;11.50;97.10
49579;DHT22;35483;50.828;3.228;2023-02-12T12:02:59;11.60;95.50
49579;DHT22;35483;50.828;3.228;2023-02-12T12:05:34;11.50;97.00
49579;DHT22;35483;50.828;3.228;2023-02-12T12:08:06;11.60;97.20
49579;DHT22;35483;50.828;3.228;2023-02-12T12:11:00;11.50;96.70
49579;DHT22;35483;50.828;3.228;2023-02-12T12:13:33;11.60;94.20
49579;DHT22;35483;50.828;3.228;2023-02-12T12:16:27;11.60;96.90
49579;DHT22;35483;50.828;3.228;2023-02-12T12:19:26;11.70;94.70
49579;DHT22;35483;50.828;3.228;2023-02-12T12:22:45;11.70;96.60
49579;DHT22;35483;50.828;3.228;2023-02-12T12:25:26;11.80;95.50
49579;DHT22;35483;50.828;3.228;2023-02-12T12:28:00;11.80;96.00
49579;DHT22;35483;50.828;3.228;2023-02-12T12:30:44;11.80;96.90
49579;DHT22;35483;50.828;3.228;2023-02-12T12:41:26;11.90;96.80
49579;DHT22;35483;50.828;3.228;2023-02-12T12:44:32;11.90;93.00
49579;DHT22;35483;50.828;3.228;2023-02-12T13:06:03;12.00;97.10
49579;DHT22;35483;50.828;3.228;2023-02-12T13:16:42;12.00;94.90
49579;DHT22;35483;50.828;3.228;2023-02-12T13:19:33;11.90;95.00
49579;DHT22;35483;50.828;3.228;2023-02-12T13:24:58;11.90;96.30
49579;DHT22;35483;50.828;3.228;2023-02-12T13:27:30;12.00;96.20
49579;DHT22;35483;50.828;3.228;2023-02-12T13:30:04;12.00;96.40
49579;DHT22;35483;50.828;3.228;2023-02-12T13:32:38;12.00;96.20
49579;DHT22;35483;50.828;3.228;2023-02-12T13:35:15;12.10;95.80
49579;DHT22;35483;50.828;3.228;2023-02-12T13:37:46;12.10;94.90
49579;DHT22;35483;50.828;3.228;2023-02-12T13:40:19;12.20;96.50
49579;DHT22;35483;50.828;3.228;2023-02-12T13:56:51;12.00;94.30
49579;DHT22;35483;50.828;3.228;2023-02-12T14:02:02;12.00;95.00
49579;DHT22;35483;50.828;3.228;2023-02-12T14:04:33;12.00;96.20
49579;DHT22;35483;50.828;3.228;2023-02-12T14:09:45;12.00;95.50
49579;DHT22;35483;50.828;3.228;2023-02-12T14:19:55;12.00;96.20
49579;DHT22;35483;50.828;3.228;2023-02-12T14:24:54;11.90;95.10
49579;DHT22;35483;50.828;3.228;2023-02-12T14:33:08;11.90;95.80
49579;DHT22;35483;50.828;3.228;2023-02-12T14:43:28;11.70;95.90
49579;DHT22;35483;50.828;3.228;2023-02-12T14:51:27;11.60;95.60
49579;DHT22;35483;50.828;3.228;2023-02-12T14:53:56;11.70;95.60
49579;DHT22;35483;50.828;3.228;2023-02-12T14:56:23;11.60;96.00
49579;DHT22;35483;50.828;3.228;2023-02-12T14:58:55;11.50;95.90
49579;DHT22;35483;50.828;3.228;2023-02-12T15:01:41;11.50;94.20
49579;DHT22;35483;50.828;3.228;2023-02-12T15:04:20;11.50;94.90
49579;DHT22;35483;50.828;3.228;2023-02-12T15:07:13;11.40;95.00
49579;DHT22;35483;50.828;3.228;2023-02-12T15:09:49;11.40;95.20
49579;DHT22;35483;50.828;3.228;2023-02-12T15:15:20;11.30;95.80
49579;DHT22;35483;50.828;3.228;2023-02-12T15:17:54;11.30;95.30
49579;DHT22;35483;50.828;3.228;2023-02-12T15:20:32;11.30;95.30
49579;DHT22;35483;50.828;3.228;2023-02-12T15:22:59;11.30;95.30
49579;DHT22;35483;50.828;3.228;2023-02-12T15:25:27;11.30;96.30
49579;DHT22;35483;50.828;3.228;2023-02-12T15:28:24;11.40;96.50
49579;DHT22;35483;50.828;3.228;2023-02-12T15:30:55;11.40;93.00
49579;DHT22;35483;50.828;3.228;2023-02-12T15:33:27;11.30;96.20
49579;DHT22;35483;50.828;3.228;2023-02-12T15:35:54;11.30;94.50
49579;DHT22;35483;50.828;3.228;2023-02-12T15:38:40;11.30;95.90
49579;DHT22;35483;50.828;3.228;2023-02-12T15:41:08;11.20;94.20
49579;DHT22;35483;50.828;3.228;2023-02-12T15:43:39;11.10;95.70
49579;DHT22;35483;50.828;3.228;2023-02-12T15:46:13;11.10;96.10
49579;DHT22;35483;50.828;3.228;2023-02-12T15:48:40;11.00;95.90
49579;DHT22;35483;50.828;3.228;2023-02-12T15:53:47;11.00;96.10
49579;DHT22;35483;50.828;3.228;2023-02-12T15:56:16;11.00;96.00
49579;DHT22;35483;50.828;3.228;2023-02-12T15:58:53;11.00;96.20
49579;DHT22;35483;50.828;3.228;2023-02-12T16:01:24;11.00;96.20
49579;DHT22;35483;50.828;3.228;2023-02-12T16:03:51;11.00;96.20
49579;DHT22;35483;50.828;3.228;2023-02-12T16:06:19;11.00;96.40
49579;DHT22;35483;50.828;3.228;2023-02-12T16:08:53;11.00;96.40
49579;DHT22;35483;50.828;3.228;2023-02-12T16:11:22;11.00;96.60
49579;DHT22;35483;50.828;3.228;2023-02-12T16:13:57;11.00;96.60
49579;DHT22;35483;50.828;3.228;2023-02-12T16:16:38;10.90;96.10
49579;DHT22;35483;50.828;3.228;2023-02-12T16:19:18;10.90;96.20
49579;DHT22;35483;50.828;3.228;2023-02-12T16:21:47;10.90;95.90
49579;DHT22;35483;50.828;3.228;2023-02-12T16:24:21;10.80;96.50
49579;DHT22;35483;50.828;3.228;2023-02-12T16:26:49;10.70;96.10
49579;DHT22;35483;50.828;3.228;2023-02-12T16:29:16;10.70;96.50
49579;DHT22;35483;50.828;3.228;2023-02-12T16:31:57;10.70;96.50
49579;DHT22;35483;50.828;3.228;2023-02-12T16:34:35;10.60;95.50
49579;DHT22;35483;50.828;3.228;2023-02-12T16:37:24;10.60;96.30
49579;DHT22;35483;50.828;3.228;2023-02-12T16:42:25;10.50;96.30
49579;DHT22;35483;50.828;3.228;2023-02-12T16:44:54;10.50;96.70
49579;DHT22;35483;50.828;3.228;2023-02-12T16:47:22;10.50;96.60
49579;DHT22;35483;50.828;3.228;2023-02-12T16:49:59;10.50;96.60
49579;DHT22;35483;50.828;3.228;2023-02-12T16:52:37;10.50;96.20
49579;DHT22;35483;50.828;3.228;2023-02-12T16:55:14;10.50;96.30
49579;DHT22;35483;50.828;3.228;2023-02-12T16:57:40;10.50;96.50
49579;DHT22;35483;50.828;3.228;2023-02-12T17:00:07;10.50;96.80
49579;DHT22;35483;50.828;3.228;2023-02-12T17:02:33;10.50;96.80
49579;DHT22;35483;50.828;3.228;2023-02-12T17:05:01;10.40;96.70
49579;DHT22;35483;50.828;3.228;2023-02-12T17:07:30;10.50;96.80
49579;DHT22;35483;50.828;3.228;2023-02-12T17:09:56;10.50;96.80
49579;DHT22;35483;50.828;3.228;2023-02-12T17:12:22;10.40;96.60
49579;DHT22;35483;50.828;3.228;2023-02-12T17:14:49;10.40;96.80
49579;DHT22;35483;50.828;3.228;2023-02-12T17:17:14;10.40;96.70
49579;DHT22;35483;50.828;3.228;2023-02-12T17:19:40;10.40;96.80
49579;DHT22;35483;50.828;3.228;2023-02-12T17:22:14;10.30;96.60
49579;DHT22;35483;50.828;3.228;2023-02-12T17:24:41;10.30;96.70
49579;DHT22;35483;50.828;3.228;2023-02-12T17:27:08;10.30;96.90
49579;DHT22;35483;50.828;3.228;2023-02-12T17:29:36;10.30;96.70
49579;DHT22;35483;50.828;3.228;2023-02-12T17:32:02;10.30;96.90
49579;DHT22;35483;50.828;3.228;2023-02-12T17:34:28;10.30;96.80
49579;DHT22;35483;50.828;3.228;2023-02-12T17:36:57;10.20;96.90
49579;DHT22;35483;50.828;3.228;2023-02-12T17:39:22;10.20;96.90
49579;DHT22;35483;50.828;3.228;2023-02-12T17:41:48;10.20;96.90
49579;DHT22;35483;50.828;3.228;2023-02-12T17:44:14;10.20;97.10
49579;DHT22;35483;50.828;3.228;2023-02-12T17:46:41;10.20;97.10
49579;DHT22;35483;50.828;3.228;2023-02-12T17:49:07;10.20;96.90
49579;DHT22;35483;50.828;3.228;2023-02-12T17:51:33;10.20;97.10
49579;DHT22;35483;50.828;3.228;2023-02-12T17:53:58;10.20;97.10
49579;DHT22;35483;50.828;3.228;2023-02-12T17:56:24;10.20;97.00
49579;DHT22;35483;50.828;3.228;2023-02-12T17:58:50;10.10;96.90
49579;DHT22;35483;50.828;3.228;2023-02-12T18:01:18;10.10;97.00
49579;DHT22;35483;50.828;3.228;2023-02-12T18:03:44;10.10;96.80
49579;DHT22;35483;50.828;3.228;2023-02-12T18:06:10;10.10;97.00
49579;DHT22;35483;50.828;3.228;2023-02-12T18:08:39;10.00;97.00
49579;DHT22;35483;50.828;3.228;2023-02-12T18:11:06;10.10;97.10
49579;DHT22;35483;50.828;3.228;2023-02-12T18:13:35;10.10;97.00
49579;DHT22;35483;50.828;3.228;2023-02-12T18:16:06;10.10;97.00
49579;DHT22;35483;50.828;3.228;2023-02-12T18:18:32;10.10;97.10
49579;DHT22;35483;50.828;3.228;2023-02-12T18:20:58;10.10;97.10
49579;DHT22;35483;50.828;3.228;2023-02-12T18:23:24;10.10;97.10
49579;DHT22;35483;50.828;3.228;2023-02-12T18:25:49;10.10;97.00
49579;DHT22;35483;50.828;3.228;2023-02-12T18:28:15;10.10;97.20
49579;DHT22;35483;50.828;3.228;2023-02-12T18:30:41;10.10;97.10
49579;DHT22;35483;50.828;3.228;2023-02-12T18:33:08;10.10;97.20
49579;DHT22;35483;50.828;3.228;2023-02-12T18:35:34;10.10;97.30
49579;DHT22;35483;50.828;3.228;2023-02-12T18:38:01;10.10;97.20
49579;DHT22;35483;50.828;3.228;2023-02-12T18:40:27;10.10;97.20
49579;DHT22;35483;50.828;3.228;2023-02-12T18:42:53;10.10;97.20
49579;DHT22;35483;50.828;3.228;2023-02-12T18:45:19;10.10;97.30
49579;DHT22;35483;50.828;3.228;2023-02-12T18:47:46;10.20;97.20
49579;DHT22;35483;50.828;3.228;2023-02-12T18:50:12;10.10;97.10
49579;DHT22;35483;50.828;3.228;2023-02-12T18:52:39;10.20;97.30
49579;DHT22;35483;50.828;3.228;2023-02-12T18:55:06;10.10;97.20
49579;DHT22;35483;50.828;3.228;2023-02-12T18:57:32;10.10;97.20
49579;DHT22;35483;50.828;3.228;2023-02-12T18:59:57;10.10;97.30